Terminal Aerodrome Forecast
Issued by NWS Wichita, KS

Home | Current Version | Previous Version | Graphics & Text | Print | Product List | Glossary On
Versions: 1 2 3 4 5 6 7 8 9 10 11 12 13 14 15 16 17 18 19
000
FTUS43 KICT 222300
TAFICT
TAF
KICT 222320Z 2300/2324 18012KT P6SM SHRA SCT025 OVC050
     FM230200 18008KT P6SM BKN050
     FM231100 17006KT 4SM BR OVC007
     FM231800 18008KT P6SM BKN020=

USA.gov is the U.S. government's official web portal to all federal, state and local government web resources and services.